createdAt,value
2022-08-17T00:01:30.270Z,60.27
2022-08-17T00:04:10.742Z,60.50
2022-08-17T00:06:38.560Z,60.42
2022-08-17T00:09:05.617Z,60.75
2022-08-17T00:11:38.816Z,60.69
2022-08-17T00:14:08.207Z,60.65
2022-08-17T00:16:57.093Z,60.66
2022-08-17T00:19:25.637Z,60.85
2022-08-17T00:22:31.890Z,60.93
2022-08-17T00:24:42.775Z,60.81
2022-08-17T00:27:09.177Z,60.93
2022-08-17T00:29:36.272Z,61.18
2022-08-17T00:33:14.244Z,60.79
2022-08-17T00:34:49.907Z,61.26
2022-08-17T00:37:16.819Z,61.18
2022-08-17T00:39:43.727Z,61.36
2022-08-17T00:42:18.454Z,61.54
2022-08-17T00:44:45.853Z,61.44
2022-08-17T00:47:12.422Z,61.15
2022-08-17T00:49:38.806Z,61.46
2022-08-17T00:52:15.204Z,61.57
2022-08-17T00:54:44.686Z,61.52
2022-08-17T00:57:17.678Z,62.19
2022-08-17T01:00:02.612Z,62.14
2022-08-17T01:02:40.419Z,61.96
2022-08-17T01:05:14.894Z,61.99
2022-08-17T01:07:42.802Z,62.09
2022-08-17T01:10:58.157Z,62.48
2022-08-17T01:13:02.545Z,62.19
2022-08-17T01:15:31.597Z,62.18
2022-08-17T01:17:58.109Z,62.45
2022-08-17T01:20:25.050Z,62.37
2022-08-17T01:22:52.074Z,62.72
2022-08-17T01:25:20.583Z,62.69
2022-08-17T01:27:48.659Z,62.70
2022-08-17T01:30:58.639Z,62.84
2022-08-17T01:33:04.185Z,62.84
2022-08-17T01:35:30.832Z,63.14
2022-08-17T01:37:57.314Z,62.90
2022-08-17T01:40:32.786Z,63.04
2022-08-17T01:43:05.816Z,63.17
2022-08-17T01:45:34.232Z,63.15
2022-08-17T01:48:00.981Z,63.20
2022-08-17T01:50:31.872Z,63.40
2022-08-17T01:53:02.965Z,63.49
2022-08-17T01:55:38.027Z,63.64
2022-08-17T01:58:08.816Z,63.43
2022-08-17T02:00:46.687Z,63.58
2022-08-17T02:03:25.308Z,63.51
2022-08-17T02:05:53.176Z,63.83
2022-08-17T02:08:21.634Z,63.93
2022-08-17T02:11:11.519Z,63.75
2022-08-17T02:13:38.734Z,63.59
2022-08-17T02:16:05.790Z,63.97
2022-08-17T02:18:32.349Z,63.65
2022-08-17T02:20:59.211Z,63.97
2022-08-17T02:23:29.173Z,63.88
2022-08-17T02:25:57.728Z,63.90
2022-08-17T02:28:24.607Z,64.00
2022-08-17T02:31:01.818Z,63.97
2022-08-17T02:33:41.820Z,64.02
2022-08-17T02:36:10.056Z,64.16
2022-08-17T02:38:37.587Z,64.23
2022-08-17T02:41:05.006Z,64.37
2022-08-17T02:43:32.292Z,64.56
2022-08-17T02:45:58.683Z,64.64
2022-08-17T02:48:30.764Z,64.32
2022-08-17T02:51:00.020Z,64.75
2022-08-17T02:53:27.285Z,65.04
2022-08-17T02:55:53.687Z,65.35
2022-08-17T02:58:34.806Z,65.30
2022-08-17T03:01:05.182Z,65.29
2022-08-17T03:03:32.082Z,64.96
2022-08-17T03:05:58.602Z,65.08
2022-08-17T03:08:25.414Z,65.27
2022-08-17T03:10:52.265Z,65.52
2022-08-17T03:13:18.903Z,65.50
2022-08-17T03:15:46.551Z,65.40
2022-08-17T03:18:24.326Z,65.43
2022-08-17T03:20:53.244Z,65.41
2022-08-17T03:23:24.150Z,65.15
2022-08-17T03:25:52.997Z,65.28
2022-08-17T03:28:21.172Z,64.91
2022-08-17T03:30:47.791Z,65.38
2022-08-17T03:33:14.572Z,65.25
2022-08-17T03:35:41.871Z,65.23
2022-08-17T03:38:12.358Z,65.32
2022-08-17T03:40:56.674Z,65.15
2022-08-17T03:43:31.361Z,65.51
2022-08-17T03:46:34.030Z,65.69
2022-08-17T03:49:24.057Z,65.61
2022-08-17T03:52:09.420Z,65.70
2022-08-17T03:54:54.883Z,65.66
2022-08-17T03:57:21.357Z,66.15
2022-08-17T03:59:47.914Z,66.08
2022-08-17T04:02:21.421Z,66.09
2022-08-17T04:04:52.066Z,65.84
2022-08-17T04:07:20.716Z,66.08
2022-08-17T04:09:47.181Z,65.74
2022-08-17T04:12:16.164Z,66.08
2022-08-17T04:14:51.920Z,66.26
2022-08-17T04:17:20.428Z,66.44
2022-08-17T04:19:46.959Z,66.74
2022-08-17T04:22:32.089Z,66.48
2022-08-17T04:25:17.523Z,66.20
2022-08-17T04:27:44.001Z,66.36
2022-08-17T04:30:11.295Z,66.34
2022-08-17T04:33:12.545Z,66.29
2022-08-17T04:35:43.553Z,66.27
2022-08-17T04:38:13.116Z,66.68
2022-08-17T04:40:58.546Z,66.64
2022-08-17T04:43:26.903Z,66.66
2022-08-17T04:45:57.247Z,66.86
2022-08-17T04:48:36.226Z,66.92
2022-08-17T04:51:16.833Z,66.61
2022-08-17T04:53:45.737Z,67.03
2022-08-17T04:56:20.625Z,66.85
2022-08-17T04:58:50.472Z,67.01
2022-08-17T05:01:23.290Z,67.04
2022-08-17T05:03:50.202Z,67.08
2022-08-17T05:06:16.666Z,66.99
2022-08-17T05:08:43.166Z,66.91
2022-08-17T05:11:10.107Z,66.90
2022-08-17T05:13:36.660Z,67.08
2022-08-17T05:16:05.499Z,67.02
2022-08-17T05:18:32.807Z,67.33
2022-08-17T05:20:59.213Z,67.19
2022-08-17T05:23:27.185Z,67.20
2022-08-17T05:26:04.305Z,67.54
2022-08-17T05:28:33.530Z,67.39
2022-08-17T05:31:03.300Z,67.27
2022-08-17T05:33:35.971Z,67.27
2022-08-17T05:36:04.705Z,67.57
2022-08-17T05:38:32.380Z,67.50
2022-08-17T05:41:03.985Z,67.41
2022-08-17T05:43:35.883Z,67.12
2022-08-17T05:46:07.794Z,66.97
2022-08-17T05:48:41.203Z,67.23
2022-08-17T05:51:29.540Z,67.35
2022-08-17T05:54:17.692Z,67.37
2022-08-17T05:57:12.418Z,67.59
2022-08-17T06:00:10.841Z,67.56
2022-08-17T06:02:53.281Z,67.55
2022-08-17T06:05:46.023Z,67.51
2022-08-17T06:08:27.308Z,67.11
2022-08-17T06:11:20.076Z,67.13
2022-08-17T06:14:07.044Z,67.30
2022-08-17T06:16:41.332Z,66.90
2022-08-17T06:19:35.915Z,66.76
2022-08-17T06:22:05.650Z,66.40
2022-08-17T06:24:47.577Z,66.22
2022-08-17T06:27:14.056Z,66.47
2022-08-17T06:29:52.428Z,66.30
2022-08-17T06:32:19.068Z,65.62
2022-08-17T06:34:46.676Z,65.73
2022-08-17T06:38:36.920Z,65.67
2022-08-17T06:41:02.056Z,65.31
2022-08-17T06:43:48.163Z,65.44
2022-08-17T06:46:25.656Z,65.20
2022-08-17T06:49:07.843Z,64.91
2022-08-17T06:51:43.179Z,64.72
2022-08-17T06:54:25.857Z,64.41
2022-08-17T06:57:02.268Z,64.33
2022-08-17T06:59:47.190Z,64.54
2022-08-17T07:02:52.040Z,64.45
2022-08-17T07:05:36.640Z,64.08
2022-08-17T07:08:26.408Z,63.39
2022-08-17T07:11:01.265Z,63.31
2022-08-17T07:13:51.078Z,63.64
2022-08-17T07:16:27.844Z,63.44
2022-08-17T07:18:56.854Z,63.21
2022-08-17T07:21:57.116Z,62.80
2022-08-17T07:24:47.191Z,62.85
2022-08-17T07:27:27.569Z,62.41
2022-08-17T07:30:18.479Z,61.89
2022-08-17T07:32:50.761Z,61.37
2022-08-17T07:35:37.573Z,61.41
2022-08-17T07:38:26.323Z,60.85
2022-08-17T07:41:02.662Z,60.48
2022-08-17T07:43:36.705Z,60.74
2022-08-17T07:46:41.679Z,60.74
2022-08-17T07:49:12.487Z,60.38
2022-08-17T07:51:40.977Z,60.11
2022-08-17T07:54:22.277Z,59.58
2022-08-17T07:56:54.488Z,59.23
2022-08-17T07:59:34.028Z,59.67
2022-08-17T08:02:02.286Z,58.21
2022-08-17T08:07:21.729Z,56.94
2022-08-17T08:10:05.933Z,57.51
2022-08-17T08:12:44.742Z,57.58
2022-08-17T08:15:22.285Z,57.62
2022-08-17T08:17:55.469Z,56.96
2022-08-17T08:20:53.443Z,56.95
2022-08-17T08:23:48.663Z,57.22
2022-08-17T08:26:26.296Z,55.60
2022-08-17T08:29:20.396Z,54.45
2022-08-17T08:32:03.795Z,54.54
2022-08-17T08:35:01.923Z,53.42
2022-08-17T08:37:42.925Z,52.26
2022-08-17T08:40:33.345Z,51.58
2022-08-17T08:43:16.624Z,52.10
2022-08-17T08:46:04.696Z,51.48
2022-08-17T08:49:10.271Z,51.54
2022-08-17T08:51:52.577Z,50.77
2022-08-17T08:54:56.828Z,50.29
2022-08-17T08:57:34.125Z,50.61
2022-08-17T09:00:14.837Z,50.06
2022-08-17T09:02:59.685Z,48.96
2022-08-17T09:05:53.470Z,49.68
2022-08-17T09:08:19.939Z,49.39
2022-08-17T09:11:08.250Z,49.31
2022-08-17T09:14:07.636Z,49.96
2022-08-17T09:17:05.753Z,49.80
2022-08-17T09:19:40.950Z,49.05
2022-08-17T09:22:42.627Z,49.71
2022-08-17T09:25:15.715Z,48.21
2022-08-17T09:27:52.353Z,48.51
2022-08-17T09:30:19.987Z,49.27
2022-08-17T09:32:55.163Z,49.31
2022-08-17T09:35:32.946Z,48.64
2022-08-17T09:38:32.378Z,48.38
2022-08-17T09:40:59.086Z,47.97
2022-08-17T09:43:54.354Z,47.76
2022-08-17T09:46:38.733Z,47.63
2022-08-17T09:49:14.988Z,47.47
2022-08-17T09:51:48.918Z,47.38
2022-08-17T09:54:42.019Z,46.50
2022-08-17T09:57:30.273Z,46.05
2022-08-17T10:00:32.572Z,45.68
2022-08-17T10:03:25.246Z,45.43
2022-08-17T10:05:59.323Z,44.63
2022-08-17T10:08:54.733Z,44.65
2022-08-17T10:11:48.293Z,44.20
2022-08-17T10:14:38.002Z,43.97
2022-08-17T10:17:30.042Z,43.73
2022-08-17T10:20:09.109Z,42.86
2022-08-17T10:23:11.627Z,41.59
2022-08-17T10:26:10.068Z,40.67
2022-08-17T10:28:47.977Z,40.09
2022-08-17T10:31:34.914Z,38.49
2022-08-17T10:34:56.375Z,37.23
2022-08-17T10:37:46.560Z,36.76
2022-08-17T10:40:46.608Z,37.22
2022-08-17T10:43:29.888Z,36.67
2022-08-17T10:46:30.890Z,36.51
2022-08-17T10:49:38.361Z,35.61
2022-08-17T10:52:21.084Z,35.22
2022-08-17T10:54:49.091Z,34.79
2022-08-17T10:57:33.736Z,34.55
2022-08-17T11:00:03.059Z,33.57
2022-08-17T11:02:39.328Z,33.90
2022-08-17T11:05:14.701Z,33.91
2022-08-17T11:08:01.649Z,33.67
2022-08-17T11:10:42.094Z,33.83
2022-08-17T11:13:37.693Z,33.48
2022-08-17T11:16:13.016Z,31.89
2022-08-17T11:18:50.711Z,31.51
2022-08-17T11:21:42.253Z,30.71
2022-08-17T11:24:33.877Z,31.14
2022-08-17T11:27:02.930Z,30.75
2022-08-17T11:30:01.831Z,32.01
2022-08-17T11:32:31.321Z,32.64
2022-08-17T11:35:22.714Z,32.68
2022-08-17T11:38:15.942Z,32.87
2022-08-17T11:41:01.015Z,33.42
2022-08-17T11:44:04.767Z,34.54
2022-08-17T11:47:09.268Z,34.95
2022-08-17T11:50:00.375Z,34.99
2022-08-17T11:52:45.987Z,35.11
2022-08-17T11:55:39.641Z,34.20
2022-08-17T11:58:30.330Z,33.26
2022-08-17T12:01:02.304Z,32.65
2022-08-17T12:03:31.905Z,31.92
2022-08-17T12:06:30.991Z,32.97
2022-08-17T12:09:34.508Z,33.20
2022-08-17T12:12:14.253Z,33.73
2022-08-17T12:17:41.030Z,33.44
2022-08-17T12:20:23.373Z,31.35
2022-08-17T12:23:00.973Z,28.98
2022-08-17T12:25:55.386Z,28.36
2022-08-17T12:28:28.150Z,28.39
2022-08-17T12:30:59.645Z,28.68
2022-08-17T12:33:28.893Z,29.39
2022-08-17T12:36:05.196Z,30.12
2022-08-17T12:38:35.005Z,31.33
2022-08-17T12:41:22.855Z,32.08
2022-08-17T12:44:04.259Z,32.96
2022-08-17T12:46:35.778Z,34.09
2022-08-17T12:49:19.528Z,34.29
2022-08-17T12:51:47.311Z,35.16
2022-08-17T12:54:57.173Z,35.74
2022-08-17T12:57:33.556Z,36.00
2022-08-17T13:00:09.454Z,36.50
2022-08-17T13:02:53.301Z,36.37
2022-08-17T13:05:41.617Z,37.10
2022-08-17T13:08:39.719Z,37.33
2022-08-17T13:11:26.470Z,36.91
2022-08-17T13:13:56.474Z,36.97
2022-08-17T13:16:26.572Z,37.17
2022-08-17T13:19:12.707Z,37.29
2022-08-17T13:21:46.037Z,37.08
2022-08-17T13:24:18.408Z,37.18
2022-08-17T13:26:51.697Z,37.66
2022-08-17T13:29:39.717Z,37.54
2022-08-17T13:32:13.209Z,37.28
2022-08-17T13:35:04.690Z,37.62
2022-08-17T13:37:32.741Z,37.84
2022-08-17T13:40:11.436Z,37.42
2022-08-17T13:42:51.843Z,38.30
2022-08-17T13:45:35.326Z,38.42
2022-08-17T13:48:13.804Z,39.14
2022-08-17T13:50:56.025Z,39.36
2022-08-17T13:53:31.301Z,39.11
2022-08-17T13:56:07.330Z,38.86
2022-08-17T13:59:00.075Z,39.22
2022-08-17T14:01:41.840Z,39.54
2022-08-17T14:04:18.392Z,39.77
2022-08-17T14:07:08.241Z,40.06
2022-08-17T14:09:39.657Z,40.27
2022-08-17T14:12:13.593Z,42.69
2022-08-17T14:14:40.676Z,41.35
2022-08-17T14:17:07.869Z,41.01
2022-08-17T14:19:36.485Z,42.22
2022-08-17T14:22:04.912Z,40.74
2022-08-17T14:24:34.511Z,40.98
2022-08-17T14:27:03.514Z,41.71
2022-08-17T14:29:31.936Z,43.33
2022-08-17T14:32:04.286Z,41.06
2022-08-17T14:34:30.727Z,41.44
2022-08-17T14:36:57.193Z,42.77
2022-08-17T14:39:23.608Z,41.38
2022-08-17T14:41:50.122Z,41.24
2022-08-17T14:44:16.981Z,41.57
2022-08-17T14:46:44.667Z,41.78
2022-08-17T14:49:13.345Z,42.55
2022-08-17T14:51:43.724Z,41.91
2022-08-17T14:54:11.822Z,41.05
2022-08-17T14:57:08.645Z,40.85
2022-08-17T14:59:44.794Z,41.17
2022-08-17T15:02:11.621Z,41.63
2022-08-17T15:04:41.879Z,42.01
2022-08-17T15:07:11.524Z,42.35
2022-08-17T15:09:38.049Z,42.72
2022-08-17T15:12:06.488Z,43.69
2022-08-17T15:14:35.349Z,43.41
2022-08-17T15:17:03.621Z,44.33
2022-08-17T15:19:30.257Z,43.86
2022-08-17T15:21:56.699Z,44.37
2022-08-17T15:24:23.324Z,44.54
2022-08-17T15:26:49.847Z,44.79
2022-08-17T15:29:16.266Z,45.00
2022-08-17T15:31:43.207Z,45.74
2022-08-17T15:34:09.654Z,45.65
2022-08-17T15:36:36.218Z,45.97
2022-08-17T15:39:03.516Z,46.64
2022-08-17T15:41:29.997Z,46.31
2022-08-17T15:43:56.840Z,46.70
2022-08-17T15:46:25.614Z,46.89
2022-08-17T15:48:56.492Z,47.09
2022-08-17T15:51:32.318Z,47.11
2022-08-17T15:54:18.871Z,46.65
2022-08-17T15:56:49.431Z,46.98
2022-08-17T15:59:15.886Z,46.95
2022-08-17T16:03:14.774Z,47.13
2022-08-17T16:04:30.947Z,46.90
2022-08-17T16:06:59.456Z,46.76
2022-08-17T16:09:25.890Z,46.83
2022-08-17T16:11:55.288Z,46.98
2022-08-17T16:14:22.808Z,47.21
2022-08-17T16:16:50.608Z,46.77
2022-08-17T16:19:17.079Z,46.67
2022-08-17T16:21:43.649Z,46.98
2022-08-17T16:24:13.354Z,47.13
2022-08-17T16:26:41.871Z,47.30
2022-08-17T16:29:08.695Z,47.05
2022-08-17T16:31:36.291Z,46.99
2022-08-17T16:34:17.766Z,47.25
2022-08-17T16:36:54.614Z,47.19
2022-08-17T16:39:22.944Z,46.90
2022-08-17T16:41:50.253Z,47.17
2022-08-17T16:44:19.283Z,47.37
2022-08-17T16:46:47.256Z,47.21
2022-08-17T16:49:24.438Z,46.72
2022-08-17T16:52:02.943Z,46.49
2022-08-17T16:54:29.325Z,46.46
2022-08-17T16:56:55.842Z,46.63
2022-08-17T16:59:31.146Z,46.68
2022-08-17T17:02:04.700Z,46.49
2022-08-17T17:04:35.079Z,46.71
2022-08-17T17:07:25.595Z,46.94
2022-08-17T17:09:55.385Z,46.81
2022-08-17T17:13:02.970Z,46.79
2022-08-17T17:15:10.614Z,46.61
2022-08-17T17:17:38.936Z,46.48
2022-08-17T17:20:11.637Z,46.30
2022-08-17T17:22:47.795Z,46.42
2022-08-17T17:25:29.387Z,46.02
2022-08-17T17:28:26.823Z,46.51
2022-08-17T17:31:23.644Z,46.51
2022-08-17T17:33:55.713Z,46.52
2022-08-17T17:36:44.763Z,46.27
2022-08-17T17:39:32.139Z,46.28
2022-08-17T17:42:02.471Z,46.13
2022-08-17T17:44:34.341Z,46.02
2022-08-17T17:47:02.757Z,46.30
2022-08-17T17:49:41.920Z,46.31
2022-08-17T17:52:30.230Z,46.59
2022-08-17T17:55:42.310Z,46.20
2022-08-17T17:58:39.253Z,45.68
2022-08-17T18:01:50.561Z,45.86
2022-08-17T18:04:40.636Z,45.77
2022-08-17T18:07:18.023Z,46.00
2022-08-17T18:10:19.411Z,46.26
2022-08-17T18:13:32.632Z,46.44
2022-08-17T18:16:00.896Z,46.66
2022-08-17T18:18:37.651Z,46.69
2022-08-17T18:21:19.208Z,47.05
2022-08-17T18:23:48.147Z,47.06
2022-08-17T18:26:36.886Z,47.20
2022-08-17T18:29:21.209Z,46.83
2022-08-17T18:31:47.996Z,47.58
2022-08-17T18:37:26.427Z,48.75
2022-08-17T18:39:52.971Z,49.61
2022-08-17T18:42:28.148Z,49.98
2022-08-17T18:44:55.481Z,49.27
2022-08-17T18:47:28.080Z,51.76
2022-08-17T18:49:58.790Z,57.50
2022-08-17T18:52:32.975Z,61.32
2022-08-17T18:55:12.179Z,64.76
2022-08-17T18:57:52.644Z,65.23
2022-08-17T19:00:40.309Z,68.10
2022-08-17T19:03:15.928Z,64.90
2022-08-17T19:05:45.974Z,69.79
2022-08-17T19:08:18.356Z,71.52
2022-08-17T19:10:47.439Z,74.16
2022-08-17T19:13:23.948Z,71.89
2022-08-17T19:16:13.814Z,69.72
2022-08-17T19:18:54.493Z,68.78
2022-08-17T19:21:41.392Z,68.11
2022-08-17T19:24:19.343Z,70.91
2022-08-17T19:27:00.276Z,71.86
2022-08-17T19:29:41.563Z,71.25
2022-08-17T19:32:10.561Z,71.23
2022-08-17T19:34:38.942Z,71.32
2022-08-17T19:37:16.398Z,69.97
2022-08-17T19:40:10.101Z,70.77
2022-08-17T19:42:47.392Z,71.90
2022-08-17T19:45:40.033Z,72.41
2022-08-17T19:48:21.489Z,71.15
2022-08-17T19:50:56.440Z,71.80
2022-08-17T19:54:06.349Z,72.75
2022-08-17T19:56:44.204Z,71.58
2022-08-17T19:59:28.713Z,72.14
2022-08-17T20:02:37.391Z,72.05
2022-08-17T20:05:15.031Z,73.77
2022-08-17T20:07:53.995Z,74.53
2022-08-17T20:10:27.015Z,74.16
2022-08-17T20:12:56.162Z,74.51
2022-08-17T20:15:30.619Z,75.11
2022-08-17T20:17:59.826Z,73.99
2022-08-17T20:20:58.818Z,73.21
2022-08-17T20:23:51.543Z,72.54
2022-08-17T20:26:26.895Z,72.52
2022-08-17T20:29:14.501Z,73.55
2022-08-17T20:31:51.616Z,73.77
2022-08-17T20:34:30.971Z,72.38
2022-08-17T20:37:26.252Z,72.79
2022-08-17T20:39:52.801Z,73.18
2022-08-17T20:42:22.246Z,74.02
2022-08-17T20:44:57.880Z,73.88
2022-08-17T20:48:15.313Z,73.16
2022-08-17T20:50:39.887Z,74.06
2022-08-17T20:53:10.040Z,74.19
2022-08-17T20:55:36.422Z,74.40
2022-08-17T20:58:24.603Z,74.55
2022-08-17T21:00:56.671Z,75.23
2022-08-17T21:03:23.350Z,74.52
2022-08-17T21:06:16.820Z,73.27
2022-08-17T21:08:53.284Z,72.86
2022-08-17T21:11:56.833Z,72.62
2022-08-17T21:14:41.671Z,72.29
2022-08-17T21:17:18.231Z,72.45
2022-08-17T21:20:11.029Z,72.06
2022-08-17T21:23:00.897Z,72.59
2022-08-17T21:25:49.376Z,70.14
2022-08-17T21:28:59.877Z,70.49
2022-08-17T21:31:45.971Z,70.07
2022-08-17T21:34:16.844Z,71.07
2022-08-17T21:36:48.019Z,70.67
2022-08-17T21:39:19.334Z,71.84
2022-08-17T21:41:57.993Z,73.21
2022-08-17T21:44:34.903Z,72.92
2022-08-17T21:47:21.917Z,73.56
2022-08-17T21:49:48.393Z,73.15
2022-08-17T21:52:17.791Z,73.75
2022-08-17T21:54:53.830Z,74.95
2022-08-17T21:57:27.233Z,75.38
2022-08-17T21:59:59.877Z,75.12
2022-08-17T22:02:33.738Z,75.68
2022-08-17T22:05:13.864Z,75.76
2022-08-17T22:07:50.796Z,76.02
2022-08-17T22:10:37.378Z,74.39
2022-08-17T22:13:16.431Z,75.27
2022-08-17T22:15:48.348Z,75.43
2022-08-17T22:18:21.734Z,75.79
2022-08-17T22:20:54.740Z,75.46
2022-08-17T22:24:01.160Z,74.64
2022-08-17T22:27:05.865Z,75.04
2022-08-17T22:29:47.283Z,75.33
2022-08-17T22:32:37.626Z,74.85
2022-08-17T22:35:18.915Z,75.15
2022-08-17T22:37:45.753Z,74.12
2022-08-17T22:40:24.536Z,73.45
2022-08-17T22:42:51.079Z,72.85
2022-08-17T22:45:17.563Z,71.77
2022-08-17T22:47:48.689Z,73.43
2022-08-17T22:50:27.008Z,73.82
2022-08-17T22:53:19.048Z,73.74
2022-08-17T22:56:09.487Z,73.93
2022-08-17T22:59:03.094Z,73.84
2022-08-17T23:01:33.114Z,74.06
2022-08-17T23:04:05.811Z,74.81
2022-08-17T23:06:34.549Z,73.86
2022-08-17T23:09:04.191Z,74.72
2022-08-17T23:11:48.967Z,74.10
2022-08-17T23:14:19.704Z,74.45
2022-08-17T23:16:47.379Z,74.87
2022-08-17T23:19:16.463Z,74.16
2022-08-17T23:21:44.769Z,74.21
2022-08-17T23:24:16.933Z,72.36
2022-08-17T23:26:43.352Z,72.80
2022-08-17T23:29:09.979Z,74.23
2022-08-17T23:31:37.568Z,73.05
2022-08-17T23:34:09.001Z,72.35
2022-08-17T23:36:35.963Z,71.20
2022-08-17T23:39:02.355Z,70.81
2022-08-17T23:41:33.822Z,72.23
2022-08-17T23:44:01.108Z,72.52
2022-08-17T23:46:27.617Z,72.15
2022-08-17T23:48:54.185Z,71.48
2022-08-17T23:51:26.770Z,71.40
2022-08-17T23:54:05.661Z,71.69
2022-08-17T23:56:37.448Z,71.06
2022-08-17T23:59:03.842Z,71.81
